Time;durP1;ratioP1;P1;durP2;ratioP2;P2;SDS_P1;SDS_P2;PMS_P1;PMS_P2;Temp;Humidity;BMP_temperature;BMP_pressure;BME280_temperature;BME280_humidity;BME280_pressure;Samples;Min_cycle;Max_cycle;Signal;HPM_P1;HPM_P2
2023/11/09 00:00:31;;;;;;;31.45;29.13;;;;;;;;;;4131908;28;20795;-68
2023/11/09 00:02:34;;;;;;;33.55;31.20;;;;;;;;;;4131540;28;20050;-68
2023/11/09 00:04:37;;;;;;;34.63;31.70;;;;;;;;;;4131355;28;20058;-67
2023/11/09 00:06:39;;;;;;;33.78;30.70;;;;;;;;;;4131589;28;20034;-68
2023/11/09 00:08:43;;;;;;;36.05;33.22;;;;;;;;;;4127692;28;20031;-68
2023/11/09 00:10:45;;;;;;;33.08;30.63;;;;;;;;;;4098284;29;20119;-68
2023/11/09 00:12:50;;;;;;;34.33;32.20;;;;;;;;;;4123283;28;20045;-68
2023/11/09 00:14:52;;;;;;;35.55;32.60;;;;;;;;;;4131550;28;20050;-68
2023/11/09 00:16:54;;;;;;;34.95;32.00;;;;;;;;;;4119094;28;20074;-68
2023/11/09 00:18:57;;;;;;;32.28;29.88;;;;;;;;;;4118492;28;20046;-68
2023/11/09 00:20:59;;;;;;;37.25;34.25;;;;;;;;;;4131528;28;20042;-68
2023/11/09 00:23:01;;;;;;;32.67;29.88;;;;;;;;;;4131727;28;20050;-67
2023/11/09 00:25:03;;;;;;;34.30;31.20;;;;;;;;;;4131630;28;20043;-68
2023/11/09 00:27:05;;;;;;;31.75;29.00;;;;;;;;;;4131730;28;20289;-68
2023/11/09 00:29:07;;;;;;;30.83;28.85;;;;;;;;;;4131260;28;20047;-68
2023/11/09 00:31:08;;;;;;;30.80;28.05;;;;;;;;;;4130878;28;20061;-68
2023/11/09 00:33:10;;;;;;;33.30;31.17;;;;;;;;;;4131719;28;20041;-68
2023/11/09 00:35:12;;;;;;;29.25;26.92;;;;;;;;;;4114191;28;20301;-68
2023/11/09 00:37:14;;;;;;;31.33;29.60;;;;;;;;;;4131260;28;20495;-69
2023/11/09 00:39:17;;;;;;;32.10;29.60;;;;;;;;;;4131216;28;20049;-68
2023/11/09 00:41:20;;;;;;;32.30;30.38;;;;;;;;;;4131567;28;20038;-68
2023/11/09 00:43:21;;;;;;;31.58;29.13;;;;;;;;;;4131627;28;20034;-68
2023/11/09 00:45:23;;;;;;;33.67;31.40;;;;;;;;;;4130902;28;20066;-68
2023/11/09 00:47:25;;;;;;;30.80;28.53;;;;;;;;;;4124504;28;20442;-68
2023/11/09 00:49:26;;;;;;;28.98;26.92;;;;;;;;;;4131112;28;20246;-68
2023/11/09 00:51:28;;;;;;;30.88;29.08;;;;;;;;;;4114078;28;20042;-68
2023/11/09 00:53:30;;;;;;;32.42;30.52;;;;;;;;;;4131528;28;20048;-68
2023/11/09 00:55:32;;;;;;;30.80;28.63;;;;;;;;;;4131313;28;20074;-68
2023/11/09 00:57:34;;;;;;;33.55;30.75;;;;;;;;;;4131242;28;20035;-68
2023/11/09 00:59:36;;;;;;;30.90;29.00;;;;;;;;;;4131310;28;20093;-68
2023/11/09 01:01:37;;;;;;;31.10;28.93;;;;;;;;;;4131541;28;20518;-68
2023/11/09 01:03:39;;;;;;;33.00;30.63;;;;;;;;;;4130933;28;20300;-68
2023/11/09 01:05:41;;;;;;;28.95;26.58;;;;;;;;;;4131617;28;20430;-68
2023/11/09 01:10:35;;;;;;;29.73;27.65;;;;;;;;;;4083052;29;20492;-68
2023/11/09 01:12:36;;;;;;;30.63;28.70;;;;;;;;;;4088942;29;20138;-68
2023/11/09 01:14:38;;;;;;;32.47;30.70;;;;;;;;;;4097451;29;20143;-68
2023/11/09 01:16:40;;;;;;;31.13;29.37;;;;;;;;;;4097183;29;20287;-68
2023/11/09 01:18:41;;;;;;;31.70;29.60;;;;;;;;;;4096941;29;20083;-67
2023/11/09 01:20:43;;;;;;;31.40;29.45;;;;;;;;;;4097090;29;20047;-67
2023/11/09 01:22:45;;;;;;;30.20;28.25;;;;;;;;;;4097353;29;20051;-68
2023/11/09 01:24:47;;;;;;;32.15;29.73;;;;;;;;;;4097206;28;20050;-68
2023/11/09 01:26:49;;;;;;;;;;;;;;;;;;4100515;29;20051;-67
2023/11/09 01:28:50;;;;;;;34.97;32.38;;;;;;;;;;4099892;29;19970;-68
2023/11/09 01:30:52;;;;;;;39.27;35.40;;;;;;;;;;4099942;29;20130;-68
2023/11/09 01:32:54;;;;;;;42.95;38.55;;;;;;;;;;4099939;29;20599;-68
2023/11/09 01:34:56;;;;;;;31.17;28.37;;;;;;;;;;4099992;29;20146;-68
2023/11/09 01:36:57;;;;;;;27.13;25.40;;;;;;;;;;4099890;29;20295;-68
2023/11/09 01:38:59;;;;;;;29.60;27.63;;;;;;;;;;4099641;29;20055;-68
2023/11/09 01:41:05;;;;;;;29.38;27.52;;;;;;;;;;4099848;29;20063;-68
2023/11/09 01:43:14;;;;;;;30.88;28.35;;;;;;;;;;4099764;29;20526;-68
2023/11/09 01:45:16;;;;;;;31.20;28.60;;;;;;;;;;4099599;29;20090;-68
2023/11/09 01:47:18;;;;;;;33.75;30.83;;;;;;;;;;4104652;28;20070;-68
2023/11/09 01:49:20;;;;;;;30.80;28.13;;;;;;;;;;4117529;28;20041;-68
2023/11/09 01:51:22;;;;;;;29.77;27.60;;;;;;;;;;4100530;28;20118;-68
2023/11/09 01:53:25;;;;;;;28.33;26.48;;;;;;;;;;4117584;28;20554;-68
2023/11/09 01:55:26;;;;;;;;;;;;;;;;;;4117874;28;20043;-68
2023/11/09 01:57:28;;;;;;;31.48;29.27;;;;;;;;;;4128848;28;19980;-68
2023/11/09 01:59:31;;;;;;;30.90;28.40;;;;;;;;;;4132947;28;20553;-68
2023/11/09 02:01:33;;;;;;;32.08;29.80;;;;;;;;;;4133523;28;20046;-68
2023/11/09 02:03:35;;;;;;;30.80;28.75;;;;;;;;;;4133278;28;20462;-68
2023/11/09 02:05:37;;;;;;;28.33;26.02;;;;;;;;;;4133330;28;20099;-68
2023/11/09 02:07:40;;;;;;;29.63;27.83;;;;;;;;;;4133464;28;20493;-68
2023/11/09 02:09:42;;;;;;;27.73;25.88;;;;;;;;;;4130452;28;20038;-67
2023/11/09 02:11:44;;;;;;;30.67;28.95;;;;;;;;;;4133369;28;20042;-68
2023/11/09 02:13:46;;;;;;;28.88;27.27;;;;;;;;;;4133368;28;20049;-68
2023/11/09 02:15:47;;;;;;;27.73;25.10;;;;;;;;;;4133270;28;20122;-68
2023/11/09 02:17:49;;;;;;;25.92;23.77;;;;;;;;;;4133038;28;20085;-68
2023/11/09 02:19:51;;;;;;;35.83;32.22;;;;;;;;;;4133243;28;20049;-68
2023/11/09 02:21:52;;;;;;;30.70;28.60;;;;;;;;;;4133200;28;20073;-68
2023/11/09 02:23:55;;;;;;;29.08;27.30;;;;;;;;;;4132915;28;20289;-68
2023/11/09 02:25:56;;;;;;;27.83;25.98;;;;;;;;;;4133220;28;20042;-68
2023/11/09 02:27:58;;;;;;;28.60;26.55;;;;;;;;;;4133260;28;20058;-68
2023/11/09 02:30:00;;;;;;;28.98;27.08;;;;;;;;;;4132872;28;20490;-68
2023/11/09 02:32:01;;;;;;;30.57;28.87;;;;;;;;;;4133115;28;20069;-68
2023/11/09 02:34:04;;;;;;;30.30;28.58;;;;;;;;;;4133035;28;20047;-68
2023/11/09 02:36:06;;;;;;;30.73;28.58;;;;;;;;;;4132680;28;20043;-68
2023/11/09 02:38:11;;;;;;;29.05;27.35;;;;;;;;;;4132821;28;20038;-68
2023/11/09 02:40:13;;;;;;;27.02;25.42;;;;;;;;;;4132591;28;20093;-68
2023/11/09 02:42:16;;;;;;;29.60;27.60;;;;;;;;;;4132788;28;20057;-68
2023/11/09 02:44:17;;;;;;;31.23;29.15;;;;;;;;;;4132789;28;20133;-68
2023/11/09 02:46:19;;;;;;;29.23;27.03;;;;;;;;;;4132597;28;20461;-68
2023/11/09 02:48:21;;;;;;;28.52;26.55;;;;;;;;;;4114743;28;20305;-69
2023/11/09 02:50:23;;;;;;;29.85;28.02;;;;;;;;;;4132299;28;20046;-68
2023/11/09 02:52:24;;;;;;;30.42;28.88;;;;;;;;;;4132445;28;20051;-68
2023/11/09 02:54:26;;;;;;;27.53;25.93;;;;;;;;;;4132772;28;20045;-68
2023/11/09 02:56:28;;;;;;;28.67;26.70;;;;;;;;;;4132706;28;20050;-69
2023/11/09 02:58:29;;;;;;;30.55;28.05;;;;;;;;;;4132676;28;20038;-69
2023/11/09 03:00:31;;;;;;;28.08;26.30;;;;;;;;;;4132574;28;20860;-68
2023/11/09 03:02:34;;;;;;;33.37;30.80;;;;;;;;;;4132810;28;20046;-68
2023/11/09 03:04:38;;;;;;;30.85;28.42;;;;;;;;;;4128321;28;20051;-68
2023/11/09 03:06:40;;;;;;;28.50;26.23;;;;;;;;;;4116703;28;20042;-69
2023/11/09 03:08:41;;;;;;;26.92;25.23;;;;;;;;;;4120228;28;20062;-67
2023/11/09 03:10:43;;;;;;;27.15;25.30;;;;;;;;;;4132405;28;20062;-68
2023/11/09 03:12:47;;;;;;;29.48;27.05;;;;;;;;;;4132350;28;20069;-69
2023/11/09 03:14:48;;;;;;;27.52;25.67;;;;;;;;;;4114968;28;20507;-68
2023/11/09 03:16:50;;;;;;;25.30;23.50;;;;;;;;;;4114968;28;20057;-68
2023/11/09 03:18:52;;;;;;;27.27;24.83;;;;;;;;;;4131811;28;20293;-68
2023/11/09 03:20:54;;;;;;;27.48;26.02;;;;;;;;;;4132577;28;20081;-68
2023/11/09 03:22:56;;;;;;;31.00;29.00;;;;;;;;;;4132337;28;20057;-68
2023/11/09 03:24:57;;;;;;;27.83;25.80;;;;;;;;;;4132187;28;20077;-68
2023/11/09 03:27:00;;;;;;;27.63;25.87;;;;;;;;;;4132294;28;20042;-68
2023/11/09 03:29:01;;;;;;;28.73;26.63;;;;;;;;;;4132076;28;20300;-68
2023/11/09 03:31:04;;;;;;;27.35;25.80;;;;;;;;;;4132038;28;20038;-68
2023/11/09 03:33:06;;;;;;;27.00;25.02;;;;;;;;;;4132152;28;20097;-68
2023/11/09 03:35:08;;;;;;;26.52;24.70;;;;;;;;;;4132009;28;20069;-68
2023/11/09 03:37:09;;;;;;;27.92;25.90;;;;;;;;;;4131923;28;20113;-68
2023/11/09 03:39:11;;;;;;;27.50;25.98;;;;;;;;;;4131790;28;20042;-67
2023/11/09 03:41:13;;;;;;;30.13;28.05;;;;;;;;;;4131853;28;20058;-68
2023/11/09 03:43:15;;;;;;;29.03;26.93;;;;;;;;;;4132059;28;20050;-69
2023/11/09 03:45:17;;;;;;;28.40;26.23;;;;;;;;;;4131981;28;20502;-69
2023/11/09 03:47:18;;;;;;;28.07;26.23;;;;;;;;;;4131274;28;20050;-69
2023/11/09 03:49:20;;;;;;;28.77;26.67;;;;;;;;;;4131533;28;20289;-68
2023/11/09 03:51:24;;;;;;;28.90;26.77;;;;;;;;;;4131784;28;20034;-68
2023/11/09 03:53:25;;;;;;;31.30;28.67;;;;;;;;;;4130535;28;20050;-69
2023/11/09 03:55:27;;;;;;;29.13;26.87;;;;;;;;;;4131921;28;20482;-68
2023/11/09 03:57:29;;;;;;;29.63;26.63;;;;;;;;;;4131779;28;20581;-68
2023/11/09 03:59:30;;;;;;;27.55;26.10;;;;;;;;;;4131827;28;20034;-68
2023/11/09 04:01:32;;;;;;;25.98;24.40;;;;;;;;;;4121966;28;20117;-68
2023/11/09 04:03:34;;;;;;;26.83;25.13;;;;;;;;;;4115445;28;20127;-69
2023/11/09 04:05:35;;;;;;;26.73;25.05;;;;;;;;;;4115805;28;20097;-69
2023/11/09 04:07:40;;;;;;;25.27;23.70;;;;;;;;;;4115705;28;20051;-68
2023/11/09 04:09:42;;;;;;;24.48;22.70;;;;;;;;;;4127378;28;20042;-68
2023/11/09 04:11:45;;;;;;;24.33;22.45;;;;;;;;;;4131757;28;20498;-69
2023/11/09 04:13:46;;;;;;;27.23;24.95;;;;;;;;;;4131803;28;20398;-68
2023/11/09 04:15:48;;;;;;;26.97;24.73;;;;;;;;;;4131734;28;20038;-68
2023/11/09 04:17:50;;;;;;;27.38;25.60;;;;;;;;;;4131277;28;20289;-69
2023/11/09 04:19:51;;;;;;;25.55;24.00;;;;;;;;;;4131405;28;20126;-68
2023/11/09 04:21:53;;;;;;;30.97;28.37;;;;;;;;;;4131580;28;20405;-69
2023/11/09 04:23:54;;;;;;;33.28;30.65;;;;;;;;;;4131823;28;20375;-68
2023/11/09 04:25:56;;;;;;;29.88;27.70;;;;;;;;;;4131530;28;20058;-68
2023/11/09 04:27:58;;;;;;;30.30;28.60;;;;;;;;;;4131575;28;20046;-69
2023/11/09 04:30:00;;;;;;;27.93;26.47;;;;;;;;;;4131405;28;20056;-69
2023/11/09 04:32:02;;;;;;;;;;;;;;;;;;4131789;28;20293;-68
2023/11/09 04:34:08;;;;;;;29.40;27.60;;;;;;;;;;4131253;28;19957;-68
2023/11/09 04:36:10;;;;;;;29.90;27.27;;;;;;;;;;4131361;28;20034;-68
2023/11/09 04:38:15;;;;;;;28.52;26.73;;;;;;;;;;4131433;28;20038;-68
2023/11/09 04:40:18;;;;;;;26.20;24.55;;;;;;;;;;4131124;28;20462;-68
2023/11/09 04:42:22;;;;;;;26.90;25.05;;;;;;;;;;4131383;28;20058;-69
2023/11/09 04:44:24;;;;;;;28.58;26.65;;;;;;;;;;4131394;28;20538;-68
2023/11/09 04:46:28;;;;;;;23.70;22.42;;;;;;;;;;4130911;28;20058;-69
2023/11/09 04:48:31;;;;;;;22.42;21.17;;;;;;;;;;4130774;28;20502;-69
2023/11/09 04:50:33;;;;;;;;;;;;;;;;;;4131636;28;20043;-69
2023/11/09 04:52:43;;;;;;;21.35;19.75;;;;;;;;;;4131380;28;19969;-69
2023/11/09 04:54:45;;;;;;;22.73;21.25;;;;;;;;;;4131273;28;20108;-69
2023/11/09 04:59:02;;;;;;;20.63;18.73;;;;;;;;;;4115229;28;20082;-68
2023/11/09 05:08:10;;;;;;;29.48;26.80;;;;;;;;;;4118227;28;20043;-69
2023/11/09 05:10:12;;;;;;;30.20;27.90;;;;;;;;;;4133995;28;20058;-68
2023/11/09 05:12:14;;;;;;;27.88;25.17;;;;;;;;;;4134237;28;20046;-68
2023/11/09 05:14:16;;;;;;;25.17;23.45;;;;;;;;;;4133670;28;20462;-68
2023/11/09 05:16:17;;;;;;;23.27;21.50;;;;;;;;;;4134459;28;20434;-68
2023/11/09 05:18:20;;;;;;;29.13;24.77;;;;;;;;;;4133746;28;20030;-68
2023/11/09 05:20:21;;;;;;;24.42;22.73;;;;;;;;;;4133961;28;20042;-68
2023/11/09 05:22:23;;;;;;;23.53;21.80;;;;;;;;;;4134043;28;20041;-68
2023/11/09 05:24:26;;;;;;;22.97;21.17;;;;;;;;;;4130634;28;20506;-68
2023/11/09 05:26:32;;;;;;;21.85;20.08;;;;;;;;;;4131786;28;20038;-68
2023/11/09 05:28:35;;;;;;;23.88;22.20;;;;;;;;;;4118301;28;20042;-68
2023/11/09 05:30:37;;;;;;;26.75;24.95;;;;;;;;;;4127801;28;20038;-68
2023/11/09 05:32:40;;;;;;;25.58;24.02;;;;;;;;;;4134077;28;20046;-69
2023/11/09 05:34:42;;;;;;;25.13;23.23;;;;;;;;;;4133981;28;20073;-68
2023/11/09 05:36:44;;;;;;;22.17;20.75;;;;;;;;;;4133914;28;20042;-68
2023/11/09 05:38:46;;;;;;;21.52;20.00;;;;;;;;;;4133706;28;20054;-68
2023/11/09 05:40:47;;;;;;;23.08;21.58;;;;;;;;;;4133812;28;20125;-68
2023/11/09 05:42:49;;;;;;;22.57;20.90;;;;;;;;;;4133818;28;20046;-68
2023/11/09 05:44:51;;;;;;;23.30;21.75;;;;;;;;;;4133585;28;20584;-68
2023/11/09 05:46:54;;;;;;;23.77;22.17;;;;;;;;;;4126568;28;20557;-68
2023/11/09 05:48:56;;;;;;;23.45;22.15;;;;;;;;;;4129149;28;20328;-68
2023/11/09 05:50:58;;;;;;;24.70;23.23;;;;;;;;;;4117586;28;20042;-68
2023/11/09 05:53:01;;;;;;;26.27;24.40;;;;;;;;;;4117497;28;20035;-68
2023/11/09 05:55:04;;;;;;;24.45;22.95;;;;;;;;;;4117460;28;20039;-68
2023/11/09 05:57:06;;;;;;;22.08;20.60;;;;;;;;;;4117544;28;20047;-68
2023/11/09 05:59:11;;;;;;;22.38;20.95;;;;;;;;;;4133282;28;20030;-68
2023/11/09 06:01:13;;;;;;;21.73;20.30;;;;;;;;;;4133466;28;20088;-68
2023/11/09 06:03:15;;;;;;;21.98;20.73;;;;;;;;;;4133333;28;20089;-68
2023/11/09 06:05:17;;;;;;;23.40;21.97;;;;;;;;;;4133562;28;20042;-68
2023/11/09 06:07:19;;;;;;;21.33;20.20;;;;;;;;;;4133532;28;20414;-68
2023/11/09 06:09:22;;;;;;;20.92;19.77;;;;;;;;;;4106902;28;20415;-68
2023/11/09 06:11:25;;;;;;;21.52;19.92;;;;;;;;;;4116623;28;20069;-68
2023/11/09 06:13:26;;;;;;;23.17;21.45;;;;;;;;;;4120182;28;20635;-68
2023/11/09 06:15:28;;;;;;;25.35;23.73;;;;;;;;;;4116008;28;20125;-68
2023/11/09 06:17:30;;;;;;;23.10;21.83;;;;;;;;;;4133025;28;20054;-68
2023/11/09 06:19:32;;;;;;;23.20;21.52;;;;;;;;;;4133033;28;20461;-68
2023/11/09 06:21:34;;;;;;;24.83;22.83;;;;;;;;;;4132944;28;20461;-68
2023/11/09 06:23:36;;;;;;;25.48;23.25;;;;;;;;;;4133073;28;20047;-65
2023/11/09 06:25:39;;;;;;;28.38;26.08;;;;;;;;;;4133033;28;20092;-65
2023/11/09 06:27:43;;;;;;;28.35;25.95;;;;;;;;;;4133140;28;20414;-65
2023/11/09 06:29:46;;;;;;;28.40;25.70;;;;;;;;;;4133244;28;20065;-65
2023/11/09 06:31:50;;;;;;;27.08;24.80;;;;;;;;;;4124439;28;20045;-65
2023/11/09 06:33:51;;;;;;;36.53;30.15;;;;;;;;;;4131842;28;20035;-65
2023/11/09 06:35:54;;;;;;;30.65;27.42;;;;;;;;;;4125834;28;20035;-65
2023/11/09 06:37:56;;;;;;;28.45;25.58;;;;;;;;;;4130047;28;20035;-66
2023/11/09 06:39:58;;;;;;;24.65;22.48;;;;;;;;;;4132469;28;20042;-65
2023/11/09 06:41:59;;;;;;;24.73;22.40;;;;;;;;;;4132799;28;20054;-65
2023/11/09 06:44:01;;;;;;;23.50;21.92;;;;;;;;;;4132504;28;20569;-66
2023/11/09 06:46:03;;;;;;;27.05;25.33;;;;;;;;;;4132114;28;20038;-65
2023/11/09 06:48:05;;;;;;;26.37;24.37;;;;;;;;;;4132960;28;20038;-65
2023/11/09 06:50:11;;;;;;;28.15;26.10;;;;;;;;;;4124522;28;20459;-66
2023/11/09 06:52:13;;;;;;;26.17;24.15;;;;;;;;;;4116802;28;20043;-65
2023/11/09 06:54:15;;;;;;;27.70;25.23;;;;;;;;;;4116702;28;20050;-66
2023/11/09 06:56:17;;;;;;;28.88;26.55;;;;;;;;;;4116588;28;20070;-65
2023/11/09 06:58:19;;;;;;;28.23;25.80;;;;;;;;;;4116543;28;20109;-66
2023/11/09 07:00:24;;;;;;;27.75;25.05;;;;;;;;;;4116773;28;20043;-65
2023/11/09 07:02:26;;;;;;;27.13;24.63;;;;;;;;;;4116539;28;20053;-65
2023/11/09 07:04:28;;;;;;;;;;;;;;;;;;4099527;28;20484;-65
2023/11/09 07:06:31;;;;;;;24.67;22.92;;;;;;;;;;4116403;28;19929;-65
2023/11/09 07:08:33;;;;;;;26.15;23.83;;;;;;;;;;4119015;28;20154;-65
2023/11/09 07:10:35;;;;;;;22.40;20.75;;;;;;;;;;4132316;28;20077;-65
2023/11/09 07:12:37;;;;;;;21.00;19.50;;;;;;;;;;4132485;28;20070;-65
2023/11/09 07:14:40;;;;;;;23.15;21.13;;;;;;;;;;4132317;28;20046;-65
2023/11/09 07:16:42;;;;;;;20.17;18.98;;;;;;;;;;4116955;28;20055;-65
2023/11/09 07:18:45;;;;;;;19.37;18.27;;;;;;;;;;4116241;28;20571;-65
2023/11/09 07:20:47;;;;;;;21.50;20.00;;;;;;;;;;4130195;28;20042;-65
2023/11/09 07:23:06;;;;;;;19.00;17.75;;;;;;;;;;4131201;28;20053;-65
2023/11/09 07:25:09;;;;;;;20.92;19.05;;;;;;;;;;4132280;28;20070;-65
2023/11/09 07:27:15;;;;;;;18.45;17.05;;;;;;;;;;4132036;28;20047;-65
2023/11/09 07:29:18;;;;;;;21.45;19.70;;;;;;;;;;4132066;28;20038;-65
2023/11/09 07:31:20;;;;;;;21.95;20.17;;;;;;;;;;4132036;28;20042;-65
2023/11/09 07:33:22;;;;;;;25.08;22.67;;;;;;;;;;4132079;28;20097;-65
2023/11/09 07:35:24;;;;;;;25.87;23.17;;;;;;;;;;4116979;28;20554;-65
2023/11/09 07:37:27;;;;;;;24.92;22.77;;;;;;;;;;4116022;28;20678;-65
2023/11/09 07:39:29;;;;;;;21.60;19.90;;;;;;;;;;4115509;28;20495;-65
2023/11/09 07:41:32;;;;;;;25.35;22.02;;;;;;;;;;4115955;28;20078;-65
2023/11/09 07:43:34;;;;;;;25.75;23.40;;;;;;;;;;4115937;28;20097;-65
2023/11/09 07:45:36;;;;;;;;;;;;;;;;;;4116048;28;20051;-65
2023/11/09 07:47:38;;;;;;;25.10;22.52;;;;;;;;;;4115714;28;20417;-65
2023/11/09 07:49:39;;;;;;;31.47;22.23;;;;;;;;;;4115960;28;20121;-65
2023/11/09 07:51:43;;;;;;;21.47;19.43;;;;;;;;;;4115773;28;20045;-65
2023/11/09 07:53:45;;;;;;;19.73;18.05;;;;;;;;;;4116000;28;20118;-65
2023/11/09 07:55:50;;;;;;;20.30;18.88;;;;;;;;;;4115759;28;20073;-65
2023/11/09 07:57:52;;;;;;;22.95;21.02;;;;;;;;;;4115736;28;20042;-65
2023/11/09 07:59:54;;;;;;;22.65;20.77;;;;;;;;;;4115718;28;20431;-65
2023/11/09 08:02:07;;;;;;;22.80;20.77;;;;;;;;;;4115615;28;20043;-65
2023/11/09 08:04:09;;;;;;;26.02;23.92;;;;;;;;;;4115498;28;20065;-65
2023/11/09 08:06:12;;;;;;;24.65;22.40;;;;;;;;;;4115551;28;20105;-65
2023/11/09 08:08:14;;;;;;;25.02;22.45;;;;;;;;;;4115536;28;20046;-65
2023/11/09 08:10:18;;;;;;;24.40;22.10;;;;;;;;;;4115524;28;20051;-65
2023/11/09 08:12:20;;;;;;;25.30;23.25;;;;;;;;;;4115564;28;20073;-65
2023/11/09 08:14:22;;;;;;;25.95;23.75;;;;;;;;;;4115520;28;20442;-65
2023/11/09 08:16:23;;;;;;;25.57;22.93;;;;;;;;;;4128225;28;20046;-65
2023/11/09 08:18:25;;;;;;;24.97;23.20;;;;;;;;;;4131546;28;20035;-65
2023/11/09 08:20:27;;;;;;;25.13;22.63;;;;;;;;;;4131507;28;20034;-65
2023/11/09 08:22:28;;;;;;;24.97;21.53;;;;;;;;;;4131512;28;20565;-65
2023/11/09 08:24:32;;;;;;;24.77;22.67;;;;;;;;;;4131436;28;20415;-65
2023/11/09 08:26:33;;;;;;;22.55;20.92;;;;;;;;;;4131536;28;20293;-65
2023/11/09 08:28:35;;;;;;;25.80;23.33;;;;;;;;;;4131444;28;20049;-65
2023/11/09 08:30:37;;;;;;;24.58;22.67;;;;;;;;;;4131662;28;20714;-65
2023/11/09 08:32:41;;;;;;;23.85;21.85;;;;;;;;;;4131395;28;20129;-65
2023/11/09 08:34:43;;;;;;;22.60;20.80;;;;;;;;;;4132741;28;20043;-65
2023/11/09 08:36:45;;;;;;;20.98;19.13;;;;;;;;;;4134823;28;20030;-65
2023/11/09 08:38:49;;;;;;;21.45;20.00;;;;;;;;;;4134461;28;20528;-65
2023/11/09 08:40:51;;;;;;;22.83;20.90;;;;;;;;;;4134795;28;20041;-65
2023/11/09 08:42:53;;;;;;;19.48;18.05;;;;;;;;;;4124694;28;20383;-65
2023/11/09 08:44:55;;;;;;;18.10;16.40;;;;;;;;;;4118739;28;20047;-65
2023/11/09 08:47:00;;;;;;;18.60;17.13;;;;;;;;;;4118437;28;20392;-65
2023/11/09 08:49:03;;;;;;;18.27;17.02;;;;;;;;;;4118777;28;20495;-65
2023/11/09 08:51:10;;;;;;;;;;;;;;;;;;4119035;28;20117;-65
2023/11/09 08:53:12;;;;;;;14.27;13.05;;;;;;;;;;4119698;28;19926;-65
2023/11/09 08:55:14;;;;;;;15.93;14.90;;;;;;;;;;4126790;28;20045;-65
2023/11/09 08:57:17;;;;;;;11.00;10.30;;;;;;;;;;4130782;28;20379;-64
2023/11/09 08:59:19;;;;;;;8.85;8.32;;;;;;;;;;4134325;28;20554;-65
2023/11/09 09:01:20;;;;;;;7.78;7.38;;;;;;;;;;4128227;28;20034;-65
2023/11/09 09:03:23;;;;;;;14.93;11.00;;;;;;;;;;4134127;28;20054;-65
2023/11/09 09:05:26;;;;;;;10.73;9.80;;;;;;;;;;4134098;28;20134;-65
2023/11/09 09:07:28;;;;;;;10.95;10.10;;;;;;;;;;4134267;28;20097;-65
2023/11/09 09:09:32;;;;;;;13.75;12.65;;;;;;;;;;4134011;28;20046;-65
2023/11/09 09:11:46;;;;;;;12.23;11.13;;;;;;;;;;4134243;28;20418;-65
2023/11/09 09:13:48;;;;;;;10.43;9.77;;;;;;;;;;4134493;28;20053;-65
2023/11/09 09:15:53;;;;;;;9.77;9.00;;;;;;;;;;4134227;28;20050;-65
2023/11/09 09:17:55;;;;;;;8.13;7.43;;;;;;;;;;4133942;28;20085;-65
2023/11/09 09:19:57;;;;;;;7.45;7.25;;;;;;;;;;4134188;28;20034;-65
2023/11/09 09:21:59;;;;;;;5.60;5.18;;;;;;;;;;4134295;28;20050;-65
2023/11/09 09:24:02;;;;;;;4.93;4.80;;;;;;;;;;4134183;28;20125;-65
2023/11/09 09:26:07;;;;;;;7.05;6.55;;;;;;;;;;4134096;28;20066;-65
2023/11/09 09:28:16;;;;;;;5.30;4.97;;;;;;;;;;4134290;28;20054;-64
2023/11/09 09:30:21;;;;;;;4.90;4.77;;;;;;;;;;4134044;28;20466;-65
2023/11/09 09:32:22;;;;;;;4.93;4.82;;;;;;;;;;4133980;28;20038;-65
2023/11/09 09:34:29;;;;;;;6.75;6.30;;;;;;;;;;4133689;28;20406;-65
2023/11/09 09:36:33;;;;;;;6.65;6.10;;;;;;;;;;4132737;28;20042;-64
2023/11/09 09:38:35;;;;;;;6.70;5.00;;;;;;;;;;4133819;28;20109;-65
2023/11/09 09:40:37;;;;;;;5.57;5.37;;;;;;;;;;4133882;28;20503;-65
2023/11/09 09:42:52;;;;;;;4.80;4.38;;;;;;;;;;4133895;28;20803;-65
2023/11/09 09:44:54;;;;;;;3.30;3.00;;;;;;;;;;4133858;28;20093;-65
2023/11/09 09:46:58;;;;;;;2.42;2.33;;;;;;;;;;4132821;28;20162;-64
2023/11/09 09:49:02;;;;;;;3.42;3.13;;;;;;;;;;4134072;28;20042;-64
2023/11/09 09:51:06;;;;;;;2.88;2.83;;;;;;;;;;4133774;28;20421;-64
2023/11/09 09:53:11;;;;;;;3.92;2.83;;;;;;;;;;4133782;28;20092;-64
2023/11/09 09:55:18;;;;;;;4.03;3.72;;;;;;;;;;4133671;28;20047;-64
2023/11/09 09:57:20;;;;;;;2.10;2.00;;;;;;;;;;4133674;28;20824;-64
2023/11/09 09:59:23;;;;;;;;;;;;;;;;;;4134315;28;20050;-64
2023/11/09 10:01:25;;;;;;;4.00;3.23;;;;;;;;;;4133272;28;19921;-64
2023/11/09 10:03:27;;;;;;;4.38;4.15;;;;;;;;;;4133387;28;20291;-64
2023/11/09 10:05:33;;;;;;;;;;;;;;;;;;4133874;28;20062;-64
2023/11/09 10:07:34;;;;;;;4.47;4.38;;;;;;;;;;4133471;28;20393;-65
2023/11/09 10:09:36;;;;;;;5.45;5.25;;;;;;;;;;4132956;28;20096;-64
2023/11/09 10:11:38;;;;;;;6.33;6.00;;;;;;;;;;4133149;28;20046;-64
2023/11/09 10:13:42;;;;;;;5.68;5.47;;;;;;;;;;4133243;28;20278;-64
2023/11/09 10:15:45;;;;;;;6.20;5.60;;;;;;;;;;4133437;28;20031;-64
2023/11/09 10:17:46;;;;;;;4.78;4.57;;;;;;;;;;4133271;28;20046;-64
2023/11/09 10:19:51;;;;;;;5.40;5.10;;;;;;;;;;4133196;28;20097;-64
2023/11/09 10:21:52;;;;;;;5.07;4.95;;;;;;;;;;4133307;28;20093;-64
2023/11/09 10:23:54;;;;;;;5.38;4.97;;;;;;;;;;4133309;28;20072;-64
2023/11/09 10:25:59;;;;;;;5.20;5.00;;;;;;;;;;4133111;28;20038;-64
2023/11/09 10:28:01;;;;;;;4.85;4.70;;;;;;;;;;4133038;28;20042;-64
2023/11/09 10:30:03;;;;;;;4.63;4.32;;;;;;;;;;4133259;28;20046;-64
2023/11/09 10:32:25;;;;;;;8.63;4.10;;;;;;;;;;4133122;28;20081;-64
2023/11/09 10:34:26;;;;;;;2.97;2.88;;;;;;;;;;4133106;28;20042;-64
2023/11/09 10:36:29;;;;;;;4.28;4.03;;;;;;;;;;4133098;28;20446;-64
2023/11/09 10:38:36;;;;;;;4.78;4.35;;;;;;;;;;4132972;28;20042;-65
2023/11/09 10:40:42;;;;;;;3.72;3.45;;;;;;;;;;4133175;28;20043;-64
2023/11/09 10:43:06;;;;;;;4.05;3.85;;;;;;;;;;4133006;28;20056;-64
2023/11/09 10:45:10;;;;;;;2.70;2.60;;;;;;;;;;4132915;28;20466;-65
2023/11/09 10:47:13;;;;;;;3.25;3.15;;;;;;;;;;4133016;28;20100;-65
2023/11/09 10:49:15;;;;;;;3.20;2.42;;;;;;;;;;4133134;28;20050;-65
2023/11/09 10:51:18;;;;;;;2.63;2.53;;;;;;;;;;4132733;28;20137;-65
2023/11/09 10:53:19;;;;;;;;;;;;;;;;;;4116017;28;20078;-65
2023/11/09 10:55:22;;;;;;;3.08;2.80;;;;;;;;;;4129975;28;20028;-64
2023/11/09 10:57:23;;;;;;;;;;;;;;;;;;4123264;28;20034;-64
2023/11/09 10:59:25;;;;;;;4.28;3.97;;;;;;;;;;4121702;28;19922;-65
2023/11/09 11:01:30;;;;;;;3.90;3.65;;;;;;;;;;4131132;28;20038;-64
2023/11/09 11:03:39;;;;;;;5.88;5.57;;;;;;;;;;4107572;28;20059;-64
2023/11/09 11:05:44;;;;;;;6.88;6.50;;;;;;;;;;4127495;28;20053;-64
2023/11/09 11:07:50;;;;;;;7.80;7.15;;;;;;;;;;4127327;28;20050;-64
2023/11/09 11:09:52;;;;;;;6.45;6.15;;;;;;;;;;4130702;28;20070;-64
2023/11/09 11:12:02;;;;;;;6.60;6.30;;;;;;;;;;4132406;28;20047;-64
2023/11/09 11:14:07;;;;;;;5.65;5.22;;;;;;;;;;4121450;28;20096;-64
2023/11/09 11:16:28;;;;;;;4.28;4.07;;;;;;;;;;4129976;28;20525;-64
2023/11/09 11:18:46;;;;;;;2.92;2.83;;;;;;;;;;4116359;28;20121;-65
2023/11/09 11:20:51;;;;;;;11.38;3.38;;;;;;;;;;4126945;28;20524;-64
2023/11/09 11:22:55;;;;;;;3.38;3.05;;;;;;;;;;4129846;28;20049;-65
2023/11/09 11:25:14;;;;;;;3.80;3.60;;;;;;;;;;4127332;28;20498;-64
2023/11/09 11:27:17;;;;;;;5.55;3.35;;;;;;;;;;4116098;28;20055;-64
2023/11/09 11:29:23;;;;;;;4.22;3.95;;;;;;;;;;4124519;28;20436;-64
2023/11/09 11:31:25;;;;;;;3.50;3.40;;;;;;;;;;4132142;28;20514;-64
2023/11/09 11:33:27;;;;;;;3.83;3.72;;;;;;;;;;4114624;28;20072;-64
2023/11/09 11:35:49;;;;;;;3.90;3.85;;;;;;;;;;4132430;28;20509;-64
2023/11/09 11:37:51;;;;;;;4.20;4.03;;;;;;;;;;4114705;28;20070;-64
2023/11/09 11:39:53;;;;;;;;;;;;;;;;;;4129707;28;20502;-64
2023/11/09 11:42:13;;;;;;;3.35;3.15;;;;;;;;;;4130299;28;19936;-64
2023/11/09 11:44:16;;;;;;;3.67;3.40;;;;;;;;;;4132034;28;20042;-64
2023/11/09 11:46:19;;;;;;;6.38;3.03;;;;;;;;;;4131919;28;20046;-64
2023/11/09 11:48:26;;;;;;;3.42;3.13;;;;;;;;;;4130082;28;20050;-64
2023/11/09 11:50:28;;;;;;;4.00;3.78;;;;;;;;;;4128973;28;20038;-64
2023/11/09 11:52:34;;;;;;;3.20;3.10;;;;;;;;;;4114606;28;20113;-64
2023/11/09 11:54:36;;;;;;;2.95;2.78;;;;;;;;;;4131711;28;20038;-64
2023/11/09 11:56:38;;;;;;;2.73;2.70;;;;;;;;;;4131192;28;20397;-64
2023/11/09 11:58:52;;;;;;;3.45;3.25;;;;;;;;;;4113905;28;20042;-64
2023/11/09 12:00:55;;;;;;;2.75;2.53;;;;;;;;;;4130486;28;20070;-64
2023/11/09 12:02:56;;;;;;;3.33;2.50;;;;;;;;;;4130555;28;20113;-64
2023/11/09 12:04:58;;;;;;;4.43;3.08;;;;;;;;;;4131264;28;20046;-64
2023/11/09 12:07:02;;;;;;;3.05;2.85;;;;;;;;;;4130399;28;20089;-64
2023/11/09 12:09:08;;;;;;;2.65;2.20;;;;;;;;;;4130763;28;20418;-64
2023/11/09 12:11:12;;;;;;;2.75;2.65;;;;;;;;;;4130331;28;20034;-64
2023/11/09 12:13:14;;;;;;;7.35;2.63;;;;;;;;;;4130496;28;20521;-64
2023/11/09 12:15:16;;;;;;;3.47;3.03;;;;;;;;;;4131476;28;20494;-64
2023/11/09 12:17:18;;;;;;;3.40;3.20;;;;;;;;;;4131545;28;20050;-64